sensor_id;sensor_type;location;lat;lon;timestamp;pressure;altitude;pressure_sealevel;temperature;humidity
7182;BME280;3632;42.724;23.298;2022-08-21T00:00:04;94843.59;;;21.29;100.00
7182;BME280;3632;42.724;23.298;2022-08-21T00:02:32;94831.22;;;21.24;100.00
7182;BME280;3632;42.724;23.298;2022-08-21T00:05:00;94814.84;;;21.30;100.00
7182;BME280;3632;42.724;23.298;2022-08-21T00:07:27;94815.66;;;21.24;100.00
7182;BME280;3632;42.724;23.298;2022-08-21T00:09:54;94828.00;;;21.16;100.00
7182;BME280;3632;42.724;23.298;2022-08-21T00:12:22;94826.78;;;21.18;100.00
7182;BME280;3632;42.724;23.298;2022-08-21T00:14:49;94824.41;;;21.17;100.00
7182;BME280;3632;42.724;23.298;2022-08-21T00:17:16;94829.19;;;21.20;100.00
7182;BME280;3632;42.724;23.298;2022-08-21T00:19:43;94821.81;;;21.17;100.00
7182;BME280;3632;42.724;23.298;2022-08-21T00:22:11;94815.22;;;21.14;100.00
7182;BME280;3632;42.724;23.298;2022-08-21T00:24:38;94810.06;;;21.21;100.00
7182;BME280;3632;42.724;23.298;2022-08-21T00:27:05;94814.84;;;21.24;100.00
7182;BME280;3632;42.724;23.298;2022-08-21T00:29:31;94806.91;;;21.25;100.00
7182;BME280;3632;42.724;23.298;2022-08-21T00:31:58;94799.31;;;21.24;100.00
7182;BME280;3632;42.724;23.298;2022-08-21T00:34:25;94805.88;;;21.26;100.00
7182;BME280;3632;42.724;23.298;2022-08-21T00:36:52;94800.50;;;21.28;100.00
7182;BME280;3632;42.724;23.298;2022-08-21T00:39:20;94790.13;;;21.21;100.00
7182;BME280;3632;42.724;23.298;2022-08-21T00:41:47;94813.47;;;21.34;100.00
7182;BME280;3632;42.724;23.298;2022-08-21T00:44:14;94802.50;;;21.32;100.00
7182;BME280;3632;42.724;23.298;2022-08-21T00:46:43;94797.72;;;21.29;100.00
7182;BME280;3632;42.724;23.298;2022-08-21T00:49:10;94806.09;;;21.25;100.00
7182;BME280;3632;42.724;23.298;2022-08-21T00:51:42;94813.06;;;21.24;100.00
7182;BME280;3632;42.724;23.298;2022-08-21T00:54:11;94804.09;;;21.20;100.00
7182;BME280;3632;42.724;23.298;2022-08-21T00:56:40;94812.84;;;21.19;100.00
7182;BME280;3632;42.724;23.298;2022-08-21T00:59:07;94811.41;;;21.10;100.00
7182;BME280;3632;42.724;23.298;2022-08-21T01:01:34;94801.63;;;20.99;100.00
7182;BME280;3632;42.724;23.298;2022-08-21T01:04:02;94804.75;;;20.88;100.00
7182;BME280;3632;42.724;23.298;2022-08-21T01:06:29;94800.75;;;20.79;100.00
7182;BME280;3632;42.724;23.298;2022-08-21T01:08:55;94801.56;;;20.86;100.00
7182;BME280;3632;42.724;23.298;2022-08-21T01:11:22;94801.56;;;20.92;100.00
7182;BME280;3632;42.724;23.298;2022-08-21T01:13:50;94790.00;;;20.82;100.00
7182;BME280;3632;42.724;23.298;2022-08-21T01:16:20;94806.75;;;20.86;100.00
7182;BME280;3632;42.724;23.298;2022-08-21T01:18:49;94783.88;;;21.03;100.00
7182;BME280;3632;42.724;23.298;2022-08-21T01:21:19;94780.09;;;21.05;100.00
7182;BME280;3632;42.724;23.298;2022-08-21T01:23:49;94776.09;;;21.03;100.00
7182;BME280;3632;42.724;23.298;2022-08-21T01:26:19;94777.31;;;21.07;100.00
7182;BME280;3632;42.724;23.298;2022-08-21T01:28:50;94776.09;;;21.09;100.00
7182;BME280;3632;42.724;23.298;2022-08-21T01:31:21;94746.16;;;20.74;100.00
7182;BME280;3632;42.724;23.298;2022-08-21T01:33:49;94735.38;;;20.70;100.00
7182;BME280;3632;42.724;23.298;2022-08-21T01:36:18;94783.88;;;20.96;100.00
7182;BME280;3632;42.724;23.298;2022-08-21T01:38:44;94762.09;;;20.84;100.00
7182;BME280;3632;42.724;23.298;2022-08-21T01:41:12;94783.66;;;20.97;100.00
7182;BME280;3632;42.724;23.298;2022-08-21T01:43:39;94784.88;;;20.95;100.00
7182;BME280;3632;42.724;23.298;2022-08-21T01:46:06;94794.97;;;20.77;100.00
7182;BME280;3632;42.724;23.298;2022-08-21T01:48:33;94805.31;;;20.77;100.00
7182;BME280;3632;42.724;23.298;2022-08-21T01:51:00;94760.03;;;20.53;100.00
7182;BME280;3632;42.724;23.298;2022-08-21T01:53:28;94797.16;;;20.80;100.00
7182;BME280;3632;42.724;23.298;2022-08-21T01:55:55;94786.16;;;20.71;100.00
7182;BME280;3632;42.724;23.298;2022-08-21T01:58:22;94792.94;;;20.66;100.00
7182;BME280;3632;42.724;23.298;2022-08-21T02:00:49;94796.50;;;20.65;100.00
7182;BME280;3632;42.724;23.298;2022-08-21T02:03:15;94792.94;;;20.72;100.00
7182;BME280;3632;42.724;23.298;2022-08-21T02:05:42;94788.56;;;20.73;100.00
7182;BME280;3632;42.724;23.298;2022-08-21T02:08:09;94732.72;;;20.16;100.00
7182;BME280;3632;42.724;23.298;2022-08-21T02:10:37;94801.22;;;20.48;100.00
7182;BME280;3632;42.724;23.298;2022-08-21T02:13:04;94797.44;;;20.50;100.00
7182;BME280;3632;42.724;23.298;2022-08-21T02:15:33;94807.84;;;20.57;100.00
7182;BME280;3632;42.724;23.298;2022-08-21T02:18:01;94807.84;;;20.57;100.00
7182;BME280;3632;42.724;23.298;2022-08-21T02:20:30;94804.63;;;20.55;100.00
7182;BME280;3632;42.724;23.298;2022-08-21T02:22:57;94811.16;;;20.44;100.00
7182;BME280;3632;42.724;23.298;2022-08-21T02:25:26;94796.84;;;20.48;100.00
7182;BME280;3632;42.724;23.298;2022-08-21T02:27:55;94811.75;;;20.46;100.00
7182;BME280;3632;42.724;23.298;2022-08-21T02:30:25;94802.97;;;20.41;100.00
7182;BME280;3632;42.724;23.298;2022-08-21T02:32:53;94801.97;;;20.42;100.00
7182;BME280;3632;42.724;23.298;2022-08-21T02:35:21;94813.91;;;20.36;100.00
7182;BME280;3632;42.724;23.298;2022-08-21T02:37:50;94810.00;;;20.19;100.00
7182;BME280;3632;42.724;23.298;2022-08-21T02:40:19;94810.69;;;20.34;100.00
7182;BME280;3632;42.724;23.298;2022-08-21T02:42:46;94814.09;;;20.35;100.00
7182;BME280;3632;42.724;23.298;2022-08-21T02:45:16;94790.28;;;20.25;100.00
7182;BME280;3632;42.724;23.298;2022-08-21T02:47:47;94832.38;;;20.33;100.00
7182;BME280;3632;42.724;23.298;2022-08-21T02:50:17;94818.47;;;20.34;100.00
7182;BME280;3632;42.724;23.298;2022-08-21T02:52:44;94813.91;;;20.36;100.00
7182;BME280;3632;42.724;23.298;2022-08-21T02:55:11;94817.72;;;20.40;100.00
7182;BME280;3632;42.724;23.298;2022-08-21T02:57:38;94824.56;;;20.27;100.00
7182;BME280;3632;42.724;23.298;2022-08-21T03:00:06;94807.34;;;20.40;100.00
7182;BME280;3632;42.724;23.298;2022-08-21T03:02:35;94808.09;;;20.34;100.00
7182;BME280;3632;42.724;23.298;2022-08-21T03:05:03;94809.09;;;20.33;100.00
7182;BME280;3632;42.724;23.298;2022-08-21T03:07:30;94818.47;;;20.34;100.00
7182;BME280;3632;42.724;23.298;2022-08-21T03:09:56;94811.50;;;20.35;100.00
7182;BME280;3632;42.724;23.298;2022-08-21T03:12:24;94828.63;;;20.36;100.00
7182;BME280;3632;42.724;23.298;2022-08-21T03:14:51;94405.25;;;17.83;100.00
7182;BME280;3632;42.724;23.298;2022-08-21T03:17:17;94803.13;;;20.33;100.00
7182;BME280;3632;42.724;23.298;2022-08-21T03:19:46;94816.34;;;20.51;100.00
7182;BME280;3632;42.724;23.298;2022-08-21T03:22:13;94813.78;;;20.51;100.00
7182;BME280;3632;42.724;23.298;2022-08-21T03:24:40;94814.97;;;20.55;100.00
7182;BME280;3632;42.724;23.298;2022-08-21T03:27:06;94822.78;;;20.62;100.00
7182;BME280;3632;42.724;23.298;2022-08-21T03:29:33;94814.25;;;20.68;100.00
7182;BME280;3632;42.724;23.298;2022-08-21T03:32:00;94819.81;;;20.65;100.00
7182;BME280;3632;42.724;23.298;2022-08-21T03:34:26;94819.41;;;20.61;100.00
7182;BME280;3632;42.724;23.298;2022-08-21T03:36:54;94783.09;;;20.48;100.00
7182;BME280;3632;42.724;23.298;2022-08-21T03:39:21;94814.25;;;20.68;100.00
7182;BME280;3632;42.724;23.298;2022-08-21T03:41:48;94810.66;;;20.69;100.00
7182;BME280;3632;42.724;23.298;2022-08-21T03:44:15;94809.69;;;20.76;100.00
7182;BME280;3632;42.724;23.298;2022-08-21T03:46:42;94806.31;;;20.76;100.00
7182;BME280;3632;42.724;23.298;2022-08-21T03:49:08;94804.50;;;20.76;100.00
7182;BME280;3632;42.724;23.298;2022-08-21T03:51:35;94809.03;;;20.61;100.00
7182;BME280;3632;42.724;23.298;2022-08-21T03:54:03;94806.03;;;20.58;100.00
7182;BME280;3632;42.724;23.298;2022-08-21T03:56:30;94766.91;;;20.05;100.00
7182;BME280;3632;42.724;23.298;2022-08-21T03:58:57;94830.84;;;20.39;100.00
7182;BME280;3632;42.724;23.298;2022-08-21T04:01:24;94828.00;;;20.34;100.00
7182;BME280;3632;42.724;23.298;2022-08-21T04:03:51;94829.00;;;20.33;100.00
7182;BME280;3632;42.724;23.298;2022-08-21T04:06:17;94837.22;;;20.43;100.00
7182;BME280;3632;42.724;23.298;2022-08-21T04:08:44;94835.28;;;20.51;100.00
7182;BME280;3632;42.724;23.298;2022-08-21T04:11:12;94777.09;;;20.13;100.00
7182;BME280;3632;42.724;23.298;2022-08-21T04:13:40;94830.56;;;20.62;100.00
7182;BME280;3632;42.724;23.298;2022-08-21T04:16:07;94748.16;;;19.96;100.00
7182;BME280;3632;42.724;23.298;2022-08-21T04:18:34;94832.13;;;20.63;100.00
7182;BME280;3632;42.724;23.298;2022-08-21T04:21:01;94824.19;;;20.64;100.00
7182;BME280;3632;42.724;23.298;2022-08-21T04:23:28;94826.22;;;20.69;100.00
7182;BME280;3632;42.724;23.298;2022-08-21T04:25:56;94825.00;;;20.71;100.00
7182;BME280;3632;42.724;23.298;2022-08-21T04:28:26;94831.78;;;20.66;100.00
7182;BME280;3632;42.724;23.298;2022-08-21T04:30:53;94821.81;;;20.69;100.00
7182;BME280;3632;42.724;23.298;2022-08-21T04:33:21;94821.44;;;20.72;100.00
7182;BME280;3632;42.724;23.298;2022-08-21T04:35:49;94814.81;;;20.63;100.00
7182;BME280;3632;42.724;23.298;2022-08-21T04:38:16;94830.41;;;20.70;100.00
7182;BME280;3632;42.724;23.298;2022-08-21T04:40:43;94823.38;;;20.64;100.00
7182;BME280;3632;42.724;23.298;2022-08-21T04:43:10;94827.94;;;20.55;100.00
7182;BME280;3632;42.724;23.298;2022-08-21T04:45:40;94809.72;;;20.35;100.00
7182;BME280;3632;42.724;23.298;2022-08-21T04:48:10;94834.47;;;20.51;100.00
7182;BME280;3632;42.724;23.298;2022-08-21T04:50:40;94828.47;;;20.44;100.00
7182;BME280;3632;42.724;23.298;2022-08-21T04:53:11;94827.50;;;20.51;100.00
7182;BME280;3632;42.724;23.298;2022-08-21T04:55:39;94821.16;;;20.54;100.00
7182;BME280;3632;42.724;23.298;2022-08-21T04:58:07;94826.44;;;20.74;100.00
7182;BME280;3632;42.724;23.298;2022-08-21T05:00:35;94824.06;;;20.85;100.00
7182;BME280;3632;42.724;23.298;2022-08-21T05:03:04;94810.16;;;20.93;100.00
7182;BME280;3632;42.724;23.298;2022-08-21T05:05:33;94818.16;;;20.98;100.00
7182;BME280;3632;42.724;23.298;2022-08-21T05:08:01;94820.34;;;21.01;100.00
7182;BME280;3632;42.724;23.298;2022-08-21T05:10:29;94827.53;;;21.06;100.00
7182;BME280;3632;42.724;23.298;2022-08-21T05:12:57;94829.94;;;21.07;100.00
7182;BME280;3632;42.724;23.298;2022-08-21T05:15:24;94831.09;;;20.98;100.00
7182;BME280;3632;42.724;23.298;2022-08-21T05:17:50;94833.59;;;20.72;100.00
7182;BME280;3632;42.724;23.298;2022-08-21T05:20:19;94825.97;;;20.64;100.00
7182;BME280;3632;42.724;23.298;2022-08-21T05:22:46;94830.72;;;20.54;100.00
7182;BME280;3632;42.724;23.298;2022-08-21T05:25:13;94829.38;;;20.64;100.00
7182;BME280;3632;42.724;23.298;2022-08-21T05:27:39;94826.63;;;20.72;100.00
7182;BME280;3632;42.724;23.298;2022-08-21T05:30:07;94832.03;;;20.84;100.00
7182;BME280;3632;42.724;23.298;2022-08-21T05:32:36;94820.50;;;20.93;100.00
7182;BME280;3632;42.724;23.298;2022-08-21T05:35:04;94815.78;;;21.03;100.00
7182;BME280;3632;42.724;23.298;2022-08-21T05:37:34;94798.63;;;21.02;100.00
7182;BME280;3632;42.724;23.298;2022-08-21T05:40:01;94824.59;;;21.15;100.00
7182;BME280;3632;42.724;23.298;2022-08-21T05:42:29;94820.78;;;21.11;100.00
7182;BME280;3632;42.724;23.298;2022-08-21T05:44:56;94811.63;;;21.09;100.00
7182;BME280;3632;42.724;23.298;2022-08-21T05:47:23;94805.22;;;21.11;100.00
7182;BME280;3632;42.724;23.298;2022-08-21T05:49:50;94813.66;;;21.20;100.00
7182;BME280;3632;42.724;23.298;2022-08-21T05:52:19;94805.69;;;21.28;100.00
7182;BME280;3632;42.724;23.298;2022-08-21T05:54:47;94807.28;;;21.35;100.00
7182;BME280;3632;42.724;23.298;2022-08-21T05:57:15;94810.28;;;21.39;100.00
7182;BME280;3632;42.724;23.298;2022-08-21T05:59:42;94741.59;;;20.89;100.00
7182;BME280;3632;42.724;23.298;2022-08-21T06:02:09;94814.88;;;21.43;100.00
7182;BME280;3632;42.724;23.298;2022-08-21T06:04:36;94814.69;;;21.52;100.00
7182;BME280;3632;42.724;23.298;2022-08-21T06:07:03;94807.13;;;21.50;100.00
7182;BME280;3632;42.724;23.298;2022-08-21T06:09:30;94814.69;;;21.45;100.00
7182;BME280;3632;42.724;23.298;2022-08-21T06:12:03;94806.72;;;21.47;100.00
7182;BME280;3632;42.724;23.298;2022-08-21T06:14:30;94813.69;;;21.46;100.00
7182;BME280;3632;42.724;23.298;2022-08-21T06:17:01;94827.66;;;21.45;100.00
7182;BME280;3632;42.724;23.298;2022-08-21T06:19:28;94814.88;;;21.43;100.00
7182;BME280;3632;42.724;23.298;2022-08-21T06:21:55;94807.31;;;21.49;100.00
7182;BME280;3632;42.724;23.298;2022-08-21T06:24:22;94838.63;;;21.54;100.00
7182;BME280;3632;42.724;23.298;2022-08-21T06:26:49;94813.72;;;21.59;100.00
7182;BME280;3632;42.724;23.298;2022-08-21T06:29:17;94807.94;;;21.64;100.00
7182;BME280;3632;42.724;23.298;2022-08-21T06:31:45;94810.31;;;21.65;100.00
7182;BME280;3632;42.724;23.298;2022-08-21T06:34:12;94816.09;;;21.61;100.00
7182;BME280;3632;42.724;23.298;2022-08-21T06:36:39;94805.72;;;21.74;100.00
7182;BME280;3632;42.724;23.298;2022-08-21T06:39:06;94818.50;;;21.82;100.00
7182;BME280;3632;42.724;23.298;2022-08-21T06:41:33;94817.31;;;21.84;100.00
7182;BME280;3632;42.724;23.298;2022-08-21T06:44:01;94811.72;;;21.94;99.54
7182;BME280;3632;42.724;23.298;2022-08-21T06:46:30;94759.06;;;21.67;97.79
7182;BME280;3632;42.724;23.298;2022-08-21T06:48:57;94777.78;;;21.82;96.44
7182;BME280;3632;42.724;23.298;2022-08-21T06:51:25;94819.31;;;22.09;95.61
7182;BME280;3632;42.724;23.298;2022-08-21T06:53:52;94823.28;;;22.11;95.22
7182;BME280;3632;42.724;23.298;2022-08-21T06:56:19;94813.91;;;22.17;93.85
7182;BME280;3632;42.724;23.298;2022-08-21T06:58:46;94789.19;;;21.95;93.10
7182;BME280;3632;42.724;23.298;2022-08-21T07:01:13;94768.00;;;21.91;93.59
7182;BME280;3632;42.724;23.298;2022-08-21T07:03:42;94821.88;;;22.28;94.50
7182;BME280;3632;42.724;23.298;2022-08-21T07:06:10;94828.09;;;22.27;93.91
7182;BME280;3632;42.724;23.298;2022-08-21T07:08:38;94813.50;;;22.20;93.75
7182;BME280;3632;42.724;23.298;2022-08-21T07:11:09;94823.66;;;22.35;94.10
7182;BME280;3632;42.724;23.298;2022-08-21T07:13:37;94833.66;;;22.38;95.09
7182;BME280;3632;42.724;23.298;2022-08-21T07:16:04;94824.84;;;22.45;94.74
7182;BME280;3632;42.724;23.298;2022-08-21T07:18:31;94768.19;;;22.16;94.54
7182;BME280;3632;42.724;23.298;2022-08-21T07:21:00;94827.84;;;22.49;94.77
7182;BME280;3632;42.724;23.298;2022-08-21T07:23:29;94825.63;;;22.46;93.73
7182;BME280;3632;42.724;23.298;2022-08-21T07:25:57;94785.38;;;22.23;92.49
7182;BME280;3632;42.724;23.298;2022-08-21T07:28:25;94833.28;;;22.27;91.28
7182;BME280;3632;42.724;23.298;2022-08-21T07:30:54;94822.25;;;22.39;90.36
7182;BME280;3632;42.724;23.298;2022-08-21T07:33:23;94791.28;;;22.37;89.82
7182;BME280;3632;42.724;23.298;2022-08-21T07:35:50;94806.41;;;22.73;89.12
7182;BME280;3632;42.724;23.298;2022-08-21T07:38:18;94806.53;;;22.91;90.67
7182;BME280;3632;42.724;23.298;2022-08-21T07:40:45;94756.44;;;22.71;89.28
7182;BME280;3632;42.724;23.298;2022-08-21T07:43:13;94796.22;;;23.09;88.14
7182;BME280;3632;42.724;23.298;2022-08-21T07:45:42;94797.34;;;23.27;88.06
7182;BME280;3632;42.724;23.298;2022-08-21T07:48:08;94794.53;;;23.28;86.86
7182;BME280;3632;42.724;23.298;2022-08-21T07:50:36;94796.50;;;23.33;86.77
7182;BME280;3632;42.724;23.298;2022-08-21T07:53:02;94799.25;;;23.44;85.13
7182;BME280;3632;42.724;23.298;2022-08-21T07:55:31;94796.88;;;23.36;85.17
7182;BME280;3632;42.724;23.298;2022-08-21T07:57:57;94768.47;;;23.35;85.77
7182;BME280;3632;42.724;23.298;2022-08-21T08:00:26;94794.06;;;23.69;85.20
7182;BME280;3632;42.724;23.298;2022-08-21T08:02:55;94798.69;;;23.67;83.16
7182;BME280;3632;42.724;23.298;2022-08-21T08:05:24;94795.59;;;23.52;83.20
7182;BME280;3632;42.724;23.298;2022-08-21T08:07:51;94789.22;;;23.48;82.76
7182;BME280;3632;42.724;23.298;2022-08-21T08:10:18;94805.53;;;23.61;81.66
7182;BME280;3632;42.724;23.298;2022-08-21T08:12:47;94796.50;;;23.64;81.61
7182;BME280;3632;42.724;23.298;2022-08-21T08:15:16;94803.13;;;23.60;81.39
7182;BME280;3632;42.724;23.298;2022-08-21T08:17:43;94794.84;;;23.45;82.31
7182;BME280;3632;42.724;23.298;2022-08-21T08:20:11;94782.41;;;23.47;81.81
7182;BME280;3632;42.724;23.298;2022-08-21T08:22:39;94789.22;;;23.48;82.29
7182;BME280;3632;42.724;23.298;2022-08-21T08:25:09;94783.09;;;23.67;82.68
7182;BME280;3632;42.724;23.298;2022-08-21T08:27:37;94779.88;;;23.65;82.95
7182;BME280;3632;42.724;23.298;2022-08-21T08:30:07;94783.00;;;23.80;80.86
7182;BME280;3632;42.724;23.298;2022-08-21T08:32:35;94784.88;;;23.91;81.58
7182;BME280;3632;42.724;23.298;2022-08-21T08:35:02;94797.25;;;23.96;79.69
7182;BME280;3632;42.724;23.298;2022-08-21T08:37:29;94789.50;;;24.14;80.10
7182;BME280;3632;42.724;23.298;2022-08-21T08:39:56;94786.19;;;24.25;78.90
7182;BME280;3632;42.724;23.298;2022-08-21T08:42:26;94784.97;;;24.46;78.77
7182;BME280;3632;42.724;23.298;2022-08-21T08:44:57;94781.13;;;24.67;79.68
7182;BME280;3632;42.724;23.298;2022-08-21T08:47:27;94790.44;;;24.74;78.87
7182;BME280;3632;42.724;23.298;2022-08-21T08:50:01;94792.50;;;24.72;77.71
7182;BME280;3632;42.724;23.298;2022-08-21T08:52:31;94794.59;;;24.64;77.85
7182;BME280;3632;42.724;23.298;2022-08-21T08:55:02;94758.41;;;24.37;77.65
7182;BME280;3632;42.724;23.298;2022-08-21T08:57:30;94754.91;;;24.62;77.08
7182;BME280;3632;42.724;23.298;2022-08-21T09:00:00;94784.69;;;24.90;76.49
7182;BME280;3632;42.724;23.298;2022-08-21T09:02:28;94777.06;;;24.89;75.88
7182;BME280;3632;42.724;23.298;2022-08-21T09:04:56;94768.16;;;24.96;74.66
7182;BME280;3632;42.724;23.298;2022-08-21T09:07:31;94768.06;;;25.03;75.20
7182;BME280;3632;42.724;23.298;2022-08-21T09:10:12;94770.25;;;25.18;76.67
7182;BME280;3632;42.724;23.298;2022-08-21T09:12:50;94764.84;;;25.19;76.43
7182;BME280;3632;42.724;23.298;2022-08-21T09:15:24;94757.69;;;25.26;76.61
7182;BME280;3632;42.724;23.298;2022-08-21T09:18:10;94747.81;;;25.17;74.49
7182;BME280;3632;42.724;23.298;2022-08-21T09:20:49;94756.22;;;25.19;75.55
7182;BME280;3632;42.724;23.298;2022-08-21T09:23:29;94753.09;;;25.40;74.30
7182;BME280;3632;42.724;23.298;2022-08-21T09:26:07;94750.53;;;25.22;74.05
7182;BME280;3632;42.724;23.298;2022-08-21T09:28:37;94741.38;;;25.31;74.18
7182;BME280;3632;42.724;23.298;2022-08-21T09:31:07;94742.66;;;25.40;73.76
7182;BME280;3632;42.724;23.298;2022-08-21T09:33:37;94710.09;;;25.31;73.52
7182;BME280;3632;42.724;23.298;2022-08-21T09:36:04;94744.97;;;25.60;72.66
7182;BME280;3632;42.724;23.298;2022-08-21T09:38:32;94740.22;;;25.57;72.03
7182;BME280;3632;42.724;23.298;2022-08-21T09:41:03;94737.72;;;25.85;72.53
7182;BME280;3632;42.724;23.298;2022-08-21T09:43:31;94722.50;;;25.93;71.68
7182;BME280;3632;42.724;23.298;2022-08-21T09:46:10;94688.03;;;25.91;71.40
7182;BME280;3632;42.724;23.298;2022-08-21T09:48:46;94731.38;;;26.39;70.14
7182;BME280;3632;42.724;23.298;2022-08-21T09:51:16;94731.69;;;26.31;68.25
7182;BME280;3632;42.724;23.298;2022-08-21T09:53:46;94725.59;;;26.25;69.15
7182;BME280;3632;42.724;23.298;2022-08-21T09:56:26;94683.81;;;25.79;69.35
7182;BME280;3632;42.724;23.298;2022-08-21T09:59:17;94725.25;;;25.99;68.47
7182;BME280;3632;42.724;23.298;2022-08-21T10:01:47;94716.16;;;25.89;68.58
7182;BME280;3632;42.724;23.298;2022-08-21T10:04:20;94719.56;;;25.78;69.86
7182;BME280;3632;42.724;23.298;2022-08-21T10:06:48;94717.53;;;25.80;70.49
7182;BME280;3632;42.724;23.298;2022-08-21T10:09:17;94714.16;;;25.80;70.29
7182;BME280;3632;42.724;23.298;2022-08-21T10:11:50;94695.41;;;25.71;69.73
7182;BME280;3632;42.724;23.298;2022-08-21T10:14:33;94674.84;;;25.63;71.28
7182;BME280;3632;42.724;23.298;2022-08-21T10:17:08;94696.97;;;25.61;70.91
7182;BME280;3632;42.724;23.298;2022-08-21T10:19:44;94701.78;;;25.75;71.16
7182;BME280;3632;42.724;23.298;2022-08-21T10:22:21;94704.91;;;25.89;70.46
7182;BME280;3632;42.724;23.298;2022-08-21T10:24:59;94704.22;;;26.17;69.85
7182;BME280;3632;42.724;23.298;2022-08-21T10:27:36;94701.75;;;26.22;67.92
7182;BME280;3632;42.724;23.298;2022-08-21T10:30:08;94704.97;;;26.41;69.14
7182;BME280;3632;42.724;23.298;2022-08-21T10:32:52;94690.22;;;26.46;68.11
7182;BME280;3632;42.724;23.298;2022-08-21T10:35:25;94685.00;;;27.03;68.57
7182;BME280;3632;42.724;23.298;2022-08-21T10:38:07;94672.09;;;27.63;66.57
7182;BME280;3632;42.724;23.298;2022-08-21T10:40:42;94677.31;;;28.18;65.08
7182;BME280;3632;42.724;23.298;2022-08-21T10:43:18;94682.28;;;28.36;64.48
7182;BME280;3632;42.724;23.298;2022-08-21T10:45:54;94679.16;;;28.39;64.05
7182;BME280;3632;42.724;23.298;2022-08-21T10:48:28;94673.19;;;28.44;59.85
7182;BME280;3632;42.724;23.298;2022-08-21T10:51:05;94665.44;;;28.54;58.92
7182;BME280;3632;42.724;23.298;2022-08-21T10:53:42;94667.63;;;28.84;61.64
7182;BME280;3632;42.724;23.298;2022-08-21T10:56:16;94663.22;;;29.21;60.17
7182;BME280;3632;42.724;23.298;2022-08-21T10:58:49;94662.47;;;29.26;58.29
7182;BME280;3632;42.724;23.298;2022-08-21T11:01:22;94651.78;;;29.32;60.26
7182;BME280;3632;42.724;23.298;2022-08-21T11:03:58;94645.34;;;29.50;57.83
7182;BME280;3632;42.724;23.298;2022-08-21T11:06:31;94644.22;;;29.78;57.34
7182;BME280;3632;42.724;23.298;2022-08-21T11:09:05;94642.69;;;29.82;54.66
7182;BME280;3632;42.724;23.298;2022-08-21T11:11:38;94640.69;;;29.99;55.16
7182;BME280;3632;42.724;23.298;2022-08-21T11:14:13;94631.31;;;30.23;57.33
7182;BME280;3632;42.724;23.298;2022-08-21T11:16:48;94631.97;;;30.56;57.27
7182;BME280;3632;42.724;23.298;2022-08-21T11:19:20;94623.31;;;30.65;55.26
7182;BME280;3632;42.724;23.298;2022-08-21T11:21:53;94623.91;;;30.93;54.48
7182;BME280;3632;42.724;23.298;2022-08-21T11:24:39;94628.41;;;31.07;52.01
7182;BME280;3632;42.724;23.298;2022-08-21T11:27:14;94628.38;;;31.02;50.39
7182;BME280;3632;42.724;23.298;2022-08-21T11:29:46;94631.00;;;30.97;52.15
7182;BME280;3632;42.724;23.298;2022-08-21T11:32:29;94615.22;;;31.07;53.17
7182;BME280;3632;42.724;23.298;2022-08-21T11:35:02;94576.41;;;30.37;50.21
7182;BME280;3632;42.724;23.298;2022-08-21T11:37:49;94616.84;;;30.26;51.49
7182;BME280;3632;42.724;23.298;2022-08-21T11:40:29;94618.59;;;30.77;52.30
7182;BME280;3632;42.724;23.298;2022-08-21T11:43:03;94613.69;;;31.06;50.08
7182;BME280;3632;42.724;23.298;2022-08-21T11:45:41;94610.75;;;31.03;50.21
7182;BME280;3632;42.724;23.298;2022-08-21T11:48:16;94615.78;;;31.09;49.93
7182;BME280;3632;42.724;23.298;2022-08-21T11:50:50;94597.31;;;30.89;51.15
7182;BME280;3632;42.724;23.298;2022-08-21T11:53:24;94612.09;;;31.05;50.61
7182;BME280;3632;42.724;23.298;2022-08-21T11:55:56;94604.66;;;30.87;50.99
7182;BME280;3632;42.724;23.298;2022-08-21T11:58:30;94614.66;;;30.70;48.68
7182;BME280;3632;42.724;23.298;2022-08-21T12:01:03;94609.63;;;30.58;49.74
7182;BME280;3632;42.724;23.298;2022-08-21T12:03:35;94605.56;;;30.30;48.97
7182;BME280;3632;42.724;23.298;2022-08-21T12:06:06;94593.75;;;29.76;49.62
7182;BME280;3632;42.724;23.298;2022-08-21T12:08:36;94602.09;;;29.58;51.54
7182;BME280;3632;42.724;23.298;2022-08-21T12:11:08;94597.75;;;29.41;53.27
7182;BME280;3632;42.724;23.298;2022-08-21T12:13:37;94588.72;;;29.27;51.94
7182;BME280;3632;42.724;23.298;2022-08-21T12:16:06;94588.94;;;29.21;52.58
7182;BME280;3632;42.724;23.298;2022-08-21T12:18:33;94595.59;;;28.96;53.41
7182;BME280;3632;42.724;23.298;2022-08-21T12:21:04;94587.47;;;28.98;54.56
7182;BME280;3632;42.724;23.298;2022-08-21T12:23:33;94593.81;;;28.75;54.12
7182;BME280;3632;42.724;23.298;2022-08-21T12:26:20;94597.66;;;28.68;54.94
7182;BME280;3632;42.724;23.298;2022-08-21T12:28:49;94604.84;;;28.50;56.04
7182;BME280;3632;42.724;23.298;2022-08-21T12:31:22;94604.72;;;28.40;56.07
7182;BME280;3632;42.724;23.298;2022-08-21T12:34:00;94607.00;;;28.32;55.26
7182;BME280;3632;42.724;23.298;2022-08-21T12:36:39;94606.28;;;28.14;54.82
7182;BME280;3632;42.724;23.298;2022-08-21T12:39:13;94609.56;;;28.05;55.24
7182;BME280;3632;42.724;23.298;2022-08-21T12:41:47;94533.06;;;27.43;56.08
7182;BME280;3632;42.724;23.298;2022-08-21T12:44:17;94607.47;;;28.07;57.80
7182;BME280;3632;42.724;23.298;2022-08-21T12:46:52;94608.69;;;27.99;58.18
7182;BME280;3632;42.724;23.298;2022-08-21T12:49:27;94604.41;;;27.71;57.11
7182;BME280;3632;42.724;23.298;2022-08-21T12:52:00;94601.75;;;27.66;57.37
7182;BME280;3632;42.724;23.298;2022-08-21T12:54:30;94600.22;;;27.70;58.17
7182;BME280;3632;42.724;23.298;2022-08-21T12:57:01;94604.91;;;27.68;58.93
7182;BME280;3632;42.724;23.298;2022-08-21T12:59:28;94593.81;;;27.61;58.77
7182;BME280;3632;42.724;23.298;2022-08-21T13:01:58;94600.94;;;27.66;59.88
7182;BME280;3632;42.724;23.298;2022-08-21T13:04:33;94607.94;;;27.60;60.10
7182;BME280;3632;42.724;23.298;2022-08-21T13:07:05;94601.22;;;27.48;58.08
7182;BME280;3632;42.724;23.298;2022-08-21T13:09:41;94598.75;;;27.41;58.33
7182;BME280;3632;42.724;23.298;2022-08-21T13:12:12;94590.13;;;27.24;59.15
7182;BME280;3632;42.724;23.298;2022-08-21T13:14:42;94593.59;;;27.30;60.39
7182;BME280;3632;42.724;23.298;2022-08-21T13:17:11;94557.69;;;26.92;60.43